WJA4264 MZBZ-CYYZ
Flight info
| Callsign | WJA4264 |
|---|---|
| Flight time | N/A |
| Altitude | 37000 |
| Route | LITRA1D LITRA UR899 CTM UG765 CZM UB881 CUN UM219 MYDIA M219 CIGAR DCT VAD DCT FLYYN DCT OXMAN LINNG3 |
| Aircraft | B738/M-SDE2E3FGHIRWXY/LB1 |
Departure
| Time | 2026-05-05 13:04 |
|---|---|
| Airport | Philip S. W. Goldson International Airport (MZBZ) |
Arrival
| Time | N/A |
|---|---|
| Airport | Toronto Pearson International Airport (CYYZ) |
| Time | Latitude | Longitude | Altitude | Speed | Heading |
|---|---|---|---|---|---|
| 2026-05-05 12:28 | 17.53699 | -88.30803 | 25 ft | 0 kts | 166° |
| 2026-05-05 12:54 | 17.53700 | -88.30804 | 25 ft | 1 kts | 166° |
| 2026-05-05 12:54 | 17.53714 | -88.30805 | 25 ft | 2 kts | 186° |
| 2026-05-05 12:55 | 17.53729 | -88.30802 | 25 ft | 2 kts | 200° |
| 2026-05-05 12:55 | 17.53742 | -88.30795 | 25 ft | 2 kts | 217° |
| 2026-05-05 12:55 | 17.53753 | -88.30784 | 25 ft | 2 kts | 233° |
| 2026-05-05 12:55 | 17.53760 | -88.30771 | 25 ft | 2 kts | 249° |
| 2026-05-05 12:56 | 17.53764 | -88.30756 | 25 ft | 2 kts | 260° |
| 2026-05-05 12:56 | 17.53767 | -88.30742 | 24 ft | 0 kts | 256° |
| 2026-05-05 12:56 | 17.53767 | -88.30741 | 24 ft | 0 kts | 256° |
| 2026-05-05 12:58 | 17.53759 | -88.30776 | 25 ft | 8 kts | 256° |
| 2026-05-05 12:59 | 17.53747 | -88.30833 | 25 ft | 7 kts | 258° |
| 2026-05-05 12:59 | 17.53734 | -88.30894 | 25 ft | 8 kts | 257° |
| 2026-05-05 12:59 | 17.53722 | -88.30950 | 25 ft | 7 kts | 257° |
| 2026-05-05 13:00 | 17.53691 | -88.31089 | 25 ft | 10 kts | 257° |
| 2026-05-05 13:00 | 17.53676 | -88.31158 | 25 ft | 9 kts | 257° |
| 2026-05-05 13:01 | 17.53614 | -88.31441 | 26 ft | 11 kts | 257° |
| 2026-05-05 13:01 | 17.53596 | -88.31520 | 26 ft | 10 kts | 257° |
| 2026-05-05 13:01 | 17.53581 | -88.31584 | 26 ft | 8 kts | 256° |
| 2026-05-05 13:01 | 17.53569 | -88.31638 | 27 ft | 6 kts | 257° |
| 2026-05-05 13:02 | 17.53556 | -88.31699 | 26 ft | 11 kts | 258° |
| 2026-05-05 13:02 | 17.53578 | -88.31768 | 25 ft | 11 kts | 338° |
| 2026-05-05 13:02 | 17.53608 | -88.31776 | 24 ft | 0 kts | 347° |
| 2026-05-05 13:03 | 17.53610 | -88.31777 | 24 ft | 1 kts | 347° |
| 2026-05-05 13:03 | 17.53663 | -88.31789 | 24 ft | 13 kts | 348° |
| 2026-05-05 13:03 | 17.53706 | -88.31757 | 24 ft | 6 kts | 82° |
| 2026-05-05 13:03 | 17.53731 | -88.31632 | 24 ft | 46 kts | 75° |
| 2026-05-05 13:04 | 17.53860 | -88.31049 | 25 ft | 114 kts | 77° |
| 2026-05-05 13:04 | 17.54079 | -88.30043 | 50 ft | 166 kts | 78° |
| 2026-05-05 13:04 | 17.54324 | -88.28899 | 826 ft | 159 kts | 78° |
| 2026-05-05 13:04 | 17.54570 | -88.27760 | 1388 ft | 170 kts | 77° |
| 2026-05-05 13:05 | 17.54864 | -88.26526 | 1880 ft | 180 kts | 77° |
| 2026-05-05 13:05 | 17.55274 | -88.25241 | 2251 ft | 195 kts | 63° |
| 2026-05-05 13:05 | 17.56301 | -88.24204 | 2565 ft | 219 kts | 28° |
| 2026-05-05 13:05 | 17.57868 | -88.23859 | 2960 ft | 239 kts | 6° |
| 2026-05-05 13:06 | 17.59588 | -88.23814 | 3369 ft | 255 kts | 4° |
| 2026-05-05 13:06 | 17.61423 | -88.23776 | 3795 ft | 269 kts | 4° |
| 2026-05-05 13:06 | 17.63337 | -88.23716 | 4446 ft | 273 kts | 4° |
| 2026-05-05 13:06 | 17.65236 | -88.23646 | 5102 ft | 277 kts | 4° |
| 2026-05-05 13:07 | 17.67181 | -88.23570 | 5747 ft | 281 kts | 4° |
| 2026-05-05 13:07 | 17.69168 | -88.23492 | 6187 ft | 288 kts | 4° |
| 2026-05-05 13:07 | 17.71165 | -88.23460 | 7005 ft | 285 kts | 359° |
| 2026-05-05 13:07 | 17.73159 | -88.23686 | 7670 ft | 289 kts | 352° |
| 2026-05-05 13:08 | 17.75135 | -88.24062 | 8366 ft | 291 kts | 350° |
| 2026-05-05 13:08 | 17.77126 | -88.24475 | 9054 ft | 293 kts | 350° |
| 2026-05-05 13:08 | 17.79151 | -88.24884 | 9778 ft | 295 kts | 350° |
| 2026-05-05 13:08 | 17.81181 | -88.25278 | 10403 ft | 301 kts | 351° |
| 2026-05-05 13:09 | 17.83288 | -88.25676 | 10784 ft | 316 kts | 351° |
| 2026-05-05 13:09 | 17.85496 | -88.26088 | 11133 ft | 331 kts | 351° |
| 2026-05-05 13:09 | 17.87818 | -88.26520 | 11482 ft | 346 kts | 350° |
| 2026-05-05 13:09 | 17.90231 | -88.26972 | 11916 ft | 357 kts | 350° |
| 2026-05-05 13:10 | 17.92689 | -88.27434 | 12605 ft | 359 kts | 350° |
| 2026-05-05 13:10 | 17.95140 | -88.27895 | 13307 ft | 360 kts | 350° |
| 2026-05-05 13:10 | 17.97579 | -88.28354 | 13965 ft | 363 kts | 350° |
| 2026-05-05 13:10 | 18.00068 | -88.28823 | 14691 ft | 363 kts | 350° |
| 2026-05-05 13:11 | 18.02574 | -88.29295 | 15321 ft | 367 kts | 350° |
| 2026-05-05 13:11 | 18.05068 | -88.29765 | 15992 ft | 368 kts | 350° |
| 2026-05-05 13:11 | 18.07621 | -88.30245 | 16660 ft | 370 kts | 350° |
| 2026-05-05 13:11 | 18.10179 | -88.30727 | 17222 ft | 374 kts | 350° |
| 2026-05-05 13:12 | 18.12717 | -88.31205 | 17844 ft | 376 kts | 350° |
| 2026-05-05 13:12 | 18.15321 | -88.31696 | 18374 ft | 380 kts | 350° |
| 2026-05-05 13:12 | 18.17948 | -88.32190 | 18934 ft | 383 kts | 351° |
| 2026-05-05 13:12 | 18.20578 | -88.32622 | 19467 ft | 387 kts | 354° |
| 2026-05-05 13:13 | 18.23258 | -88.32865 | 20014 ft | 389 kts | 357° |
| 2026-05-05 13:13 | 18.26002 | -88.32975 | 20549 ft | 392 kts | 359° |
| 2026-05-05 13:13 | 18.28741 | -88.33025 | 21050 ft | 395 kts | 0° |
| 2026-05-05 13:13 | 18.31487 | -88.33055 | 21529 ft | 399 kts | 0° |
| 2026-05-05 13:14 | 18.34297 | -88.33086 | 22056 ft | 401 kts | 0° |
| 2026-05-05 13:14 | 18.37099 | -88.33122 | 22555 ft | 404 kts | 0° |
| 2026-05-05 13:14 | 18.39930 | -88.33163 | 23057 ft | 406 kts | 0° |
| 2026-05-05 13:14 | 18.42757 | -88.33210 | 23496 ft | 410 kts | 360° |
| 2026-05-05 13:15 | 18.45650 | -88.33237 | 23981 ft | 412 kts | 1° |
| 2026-05-05 13:15 | 18.48529 | -88.33028 | 24497 ft | 413 kts | 8° |
| 2026-05-05 13:15 | 18.51349 | -88.32356 | 24910 ft | 417 kts | 18° |
| 2026-05-05 13:15 | 18.54015 | -88.31167 | 25357 ft | 420 kts | 27° |
| 2026-05-05 13:16 | 18.56575 | -88.29611 | 25811 ft | 423 kts | 31° |
| 2026-05-05 13:16 | 18.59061 | -88.27920 | 26262 ft | 425 kts | 32° |
| 2026-05-05 13:16 | 18.61504 | -88.26184 | 26679 ft | 428 kts | 33° |
| 2026-05-05 13:16 | 18.63995 | -88.24390 | 27073 ft | 431 kts | 33° |
| 2026-05-05 13:17 | 18.66479 | -88.22603 | 27456 ft | 434 kts | 33° |
| 2026-05-05 13:17 | 18.69011 | -88.20789 | 27844 ft | 436 kts | 32° |
| 2026-05-05 13:17 | 18.71529 | -88.18994 | 28207 ft | 439 kts | 32° |
| 2026-05-05 13:17 | 18.74090 | -88.17177 | 28590 ft | 441 kts | 32° |
| 2026-05-05 13:18 | 18.76651 | -88.15365 | 28971 ft | 443 kts | 32° |
| 2026-05-05 13:18 | 18.79225 | -88.13548 | 29270 ft | 447 kts | 32° |
| 2026-05-05 13:18 | 18.81813 | -88.11723 | 29638 ft | 449 kts | 32° |
| 2026-05-05 13:18 | 18.84451 | -88.09864 | 29949 ft | 452 kts | 31° |
| 2026-05-05 13:19 | 18.87049 | -88.08033 | 30504 ft | 450 kts | 31° |
| 2026-05-05 13:19 | 18.89686 | -88.06175 | 30988 ft | 448 kts | 31° |
| 2026-05-05 13:19 | 18.92275 | -88.04349 | 31385 ft | 449 kts | 31° |
| 2026-05-05 13:19 | 18.94860 | -88.02526 | 31777 ft | 449 kts | 31° |
| 2026-05-05 13:20 | 18.97452 | -88.00698 | 32200 ft | 448 kts | 31° |
| 2026-05-05 13:20 | 19.00053 | -87.98862 | 32594 ft | 448 kts | 31° |
| 2026-05-05 13:20 | 19.02652 | -87.97027 | 33016 ft | 448 kts | 31° |
| 2026-05-05 13:20 | 19.05235 | -87.95201 | 33513 ft | 446 kts | 31° |
| 2026-05-05 13:21 | 19.07834 | -87.93365 | 34015 ft | 444 kts | 31° |
| 2026-05-05 13:21 | 19.10381 | -87.91564 | 34417 ft | 444 kts | 31° |
| 2026-05-05 13:21 | 19.12919 | -87.89771 | 34895 ft | 442 kts | 31° |
| 2026-05-05 13:21 | 19.15488 | -87.87952 | 35381 ft | 440 kts | 31° |
| 2026-05-05 13:22 | 19.18010 | -87.86167 | 35841 ft | 438 kts | 31° |
| 2026-05-05 13:22 | 19.20528 | -87.84384 | 36225 ft | 437 kts | 31° |
| 2026-05-05 13:22 | 19.23052 | -87.82597 | 36541 ft | 438 kts | 31° |
| 2026-05-05 13:22 | 19.25608 | -87.80787 | 36908 ft | 437 kts | 31° |
| 2026-05-05 13:23 | 19.30632 | -87.77228 | 36950 ft | 438 kts | 31° |
| 2026-05-05 13:23 | 19.35650 | -87.73668 | 36951 ft | 435 kts | 31° |
| 2026-05-05 13:24 | 19.40663 | -87.70111 | 36951 ft | 437 kts | 31° |
| 2026-05-05 13:24 | 19.45706 | -87.66528 | 36953 ft | 436 kts | 31° |
| 2026-05-05 13:25 | 19.50698 | -87.62978 | 36952 ft | 435 kts | 31° |
| 2026-05-05 13:25 | 19.55738 | -87.59393 | 36956 ft | 435 kts | 31° |
| 2026-05-05 13:26 | 19.60732 | -87.55839 | 36954 ft | 435 kts | 31° |
| 2026-05-05 13:26 | 19.65747 | -87.52259 | 36956 ft | 435 kts | 31° |
| 2026-05-05 13:27 | 19.70739 | -87.48692 | 36954 ft | 435 kts | 31° |
| 2026-05-05 13:27 | 19.75732 | -87.45122 | 36959 ft | 434 kts | 31° |
| 2026-05-05 13:28 | 19.80723 | -87.41554 | 36958 ft | 434 kts | 31° |
| 2026-05-05 13:28 | 19.85736 | -87.37970 | 36961 ft | 434 kts | 31° |
| 2026-05-05 13:29 | 19.90730 | -87.34397 | 36958 ft | 434 kts | 31° |
| 2026-05-05 13:29 | 19.95713 | -87.30829 | 36961 ft | 433 kts | 31° |
| 2026-05-05 13:30 | 20.00726 | -87.27236 | 36960 ft | 433 kts | 31° |
| 2026-05-05 13:30 | 20.05691 | -87.23676 | 36964 ft | 432 kts | 31° |
| 2026-05-05 13:31 | 20.10654 | -87.20115 | 36981 ft | 433 kts | 31° |
| 2026-05-05 13:31 | 20.15641 | -87.16531 | 36981 ft | 433 kts | 31° |
| 2026-05-05 13:32 | 20.20581 | -87.12978 | 36981 ft | 433 kts | 31° |
| 2026-05-05 13:32 | 20.25555 | -87.09400 | 36983 ft | 432 kts | 31° |
| 2026-05-05 13:33 | 20.30527 | -87.05821 | 36982 ft | 432 kts | 31° |
| 2026-05-05 13:33 | 20.35405 | -87.02307 | 36984 ft | 431 kts | 31° |
| 2026-05-05 13:34 | 20.40367 | -86.98732 | 36980 ft | 432 kts | 31° |
| 2026-05-05 13:34 | 20.45275 | -86.95191 | 36981 ft | 430 kts | 31° |
| 2026-05-05 13:35 | 20.50363 | -86.91951 | 36976 ft | 427 kts | 20° |
| 2026-05-05 13:35 | 20.53148 | -86.90994 | 36987 ft | 423 kts | 9° |
| 2026-05-05 13:35 | 20.56022 | -86.90480 | 36989 ft | 422 kts | 5° |
| 2026-05-05 13:36 | 20.61844 | -86.89871 | 36980 ft | 418 kts | 2° |
| 2026-05-05 13:36 | 20.67577 | -86.89377 | 36981 ft | 417 kts | 2° |
| 2026-05-05 13:37 | 20.73387 | -86.88841 | 36984 ft | 417 kts | 2° |
| 2026-05-05 13:37 | 20.79139 | -86.88275 | 36979 ft | 418 kts | 2° |
| 2026-05-05 13:38 | 20.84920 | -86.87689 | 36983 ft | 418 kts | 2° |
| 2026-05-05 13:38 | 20.90657 | -86.87101 | 36984 ft | 417 kts | 2° |
| 2026-05-05 13:39 | 20.96422 | -86.86507 | 36980 ft | 416 kts | 2° |
| 2026-05-05 13:39 | 21.02101 | -86.85907 | 36977 ft | 415 kts | 4° |
| 2026-05-05 13:40 | 21.07794 | -86.84856 | 36979 ft | 418 kts | 8° |
| 2026-05-05 13:40 | 21.13408 | -86.83530 | 36975 ft | 419 kts | 9° |
| 2026-05-05 13:41 | 21.19051 | -86.82183 | 36971 ft | 419 kts | 9° |
| 2026-05-05 13:41 | 21.24682 | -86.80866 | 36979 ft | 418 kts | 9° |
| 2026-05-05 13:42 | 21.30358 | -86.79555 | 36979 ft | 417 kts | 8° |
| 2026-05-05 13:42 | 21.36002 | -86.78264 | 36979 ft | 419 kts | 8° |
| 2026-05-05 13:43 | 21.41695 | -86.76962 | 36979 ft | 417 kts | 8° |
| 2026-05-05 13:43 | 21.47283 | -86.75684 | 36979 ft | 417 kts | 8° |
| 2026-05-05 13:44 | 21.52901 | -86.74400 | 36980 ft | 417 kts | 8° |
| 2026-05-05 13:44 | 21.58541 | -86.73106 | 36980 ft | 416 kts | 8° |
| 2026-05-05 13:45 | 21.64207 | -86.71807 | 36981 ft | 417 kts | 8° |
| 2026-05-05 13:45 | 21.69840 | -86.70514 | 36983 ft | 416 kts | 8° |
| 2026-05-05 13:46 | 21.75452 | -86.69225 | 36983 ft | 416 kts | 8° |
| 2026-05-05 13:46 | 21.81058 | -86.67936 | 36983 ft | 416 kts | 8° |
| 2026-05-05 13:47 | 21.86701 | -86.66639 | 36985 ft | 417 kts | 8° |
| 2026-05-05 13:47 | 21.92371 | -86.65335 | 36986 ft | 415 kts | 8° |
| 2026-05-05 13:48 | 21.97984 | -86.64043 | 36987 ft | 416 kts | 8° |
| 2026-05-05 13:48 | 22.03599 | -86.62751 | 36989 ft | 417 kts | 8° |
| 2026-05-05 13:49 | 22.09266 | -86.61446 | 36991 ft | 414 kts | 8° |
| 2026-05-05 13:49 | 22.14850 | -86.60155 | 36990 ft | 414 kts | 8° |
| 2026-05-05 13:50 | 22.20491 | -86.58849 | 36995 ft | 414 kts | 7° |
| 2026-05-05 13:50 | 22.26109 | -86.57549 | 36999 ft | 412 kts | 7° |
| 2026-05-05 13:51 | 22.31723 | -86.56251 | 36998 ft | 414 kts | 8° |
| 2026-05-05 13:51 | 22.37297 | -86.54962 | 37003 ft | 413 kts | 7° |
| 2026-05-05 13:52 | 22.42911 | -86.53661 | 37003 ft | 412 kts | 7° |
| 2026-05-05 13:52 | 22.48496 | -86.52367 | 37003 ft | 412 kts | 7° |
| 2026-05-05 13:53 | 22.54101 | -86.51065 | 36999 ft | 411 kts | 7° |
| 2026-05-05 13:53 | 22.59636 | -86.49779 | 37002 ft | 411 kts | 7° |
| 2026-05-05 13:54 | 22.65144 | -86.48500 | 37002 ft | 411 kts | 7° |
| 2026-05-05 13:54 | 22.70695 | -86.47210 | 37002 ft | 410 kts | 7° |
| 2026-05-05 13:55 | 22.76270 | -86.45911 | 37008 ft | 410 kts | 7° |
| 2026-05-05 13:55 | 22.81832 | -86.44616 | 37007 ft | 409 kts | 7° |
| 2026-05-05 13:56 | 22.87411 | -86.43314 | 37010 ft | 410 kts | 7° |
| 2026-05-05 13:56 | 22.92969 | -86.42015 | 37009 ft | 410 kts | 7° |
| 2026-05-05 13:57 | 22.98551 | -86.40710 | 37008 ft | 409 kts | 7° |
| 2026-05-05 13:57 | 23.04091 | -86.39414 | 37009 ft | 408 kts | 7° |
| 2026-05-05 13:58 | 23.09649 | -86.38113 | 37010 ft | 409 kts | 7° |
| 2026-05-05 13:58 | 23.15251 | -86.36800 | 37007 ft | 409 kts | 7° |
| 2026-05-05 13:59 | 23.23560 | -86.34849 | 37009 ft | 407 kts | 7° |
| 2026-05-05 14:00 | 23.30982 | -86.33106 | 37009 ft | 408 kts | 7° |
| 2026-05-05 14:00 | 23.37465 | -86.31581 | 37009 ft | 408 kts | 7° |
| 2026-05-05 14:01 | 23.43007 | -86.30279 | 37008 ft | 408 kts | 7° |
| 2026-05-05 14:01 | 23.48565 | -86.28970 | 37010 ft | 408 kts | 7° |
| 2026-05-05 14:02 | 23.54122 | -86.27660 | 37010 ft | 408 kts | 7° |
| 2026-05-05 14:02 | 23.59664 | -86.26353 | 37010 ft | 409 kts | 7° |
| 2026-05-05 14:03 | 23.65194 | -86.25046 | 37009 ft | 407 kts | 7° |
| 2026-05-05 14:03 | 23.70747 | -86.23732 | 37010 ft | 406 kts | 7° |
| 2026-05-05 14:04 | 23.76266 | -86.22427 | 37009 ft | 406 kts | 7° |
| 2026-05-05 14:04 | 23.81786 | -86.21124 | 37008 ft | 408 kts | 7° |
| 2026-05-05 14:05 | 23.87334 | -86.19807 | 37010 ft | 407 kts | 7° |
| 2026-05-05 14:05 | 23.92889 | -86.18490 | 37009 ft | 407 kts | 6° |
| 2026-05-05 14:06 | 23.98398 | -86.17181 | 37009 ft | 405 kts | 6° |
| 2026-05-05 14:06 | 24.03863 | -86.15531 | 37008 ft | 412 kts | 14° |
| 2026-05-05 14:07 | 24.09108 | -86.12855 | 37008 ft | 420 kts | 21° |
| 2026-05-05 14:07 | 24.14235 | -86.09700 | 37008 ft | 422 kts | 23° |
| 2026-05-05 14:08 | 24.19330 | -86.06484 | 37010 ft | 421 kts | 23° |
| 2026-05-05 14:08 | 24.24376 | -86.03314 | 37013 ft | 419 kts | 22° |
| 2026-05-05 14:09 | 24.29475 | -86.00131 | 37016 ft | 421 kts | 22° |
| 2026-05-05 14:09 | 24.34533 | -85.96981 | 37018 ft | 420 kts | 22° |
| 2026-05-05 14:10 | 24.39641 | -85.93805 | 37014 ft | 419 kts | 22° |
| 2026-05-05 14:10 | 24.44681 | -85.90668 | 37018 ft | 418 kts | 22° |
| 2026-05-05 14:11 | 24.49769 | -85.87502 | 37018 ft | 420 kts | 22° |
| 2026-05-05 14:11 | 24.54835 | -85.84345 | 37020 ft | 419 kts | 22° |
| 2026-05-05 14:12 | 24.59911 | -85.81177 | 37022 ft | 421 kts | 22° |
| 2026-05-05 14:12 | 24.65006 | -85.77997 | 37021 ft | 420 kts | 22° |
| 2026-05-05 14:13 | 24.70077 | -85.74827 | 37026 ft | 420 kts | 22° |
| 2026-05-05 14:13 | 24.75153 | -85.71650 | 37028 ft | 419 kts | 22° |
| 2026-05-05 14:14 | 24.80190 | -85.68497 | 37032 ft | 421 kts | 22° |
| 2026-05-05 14:14 | 24.85298 | -85.65295 | 37029 ft | 418 kts | 22° |
| 2026-05-05 14:15 | 24.90343 | -85.62131 | 37030 ft | 421 kts | 22° |
| 2026-05-05 14:15 | 24.95434 | -85.58933 | 37029 ft | 417 kts | 21° |
| 2026-05-05 14:16 | 25.00491 | -85.55755 | 37031 ft | 421 kts | 21° |
| 2026-05-05 14:16 | 25.05547 | -85.52572 | 37031 ft | 419 kts | 21° |
| 2026-05-05 14:17 | 25.10619 | -85.49377 | 37032 ft | 420 kts | 21° |
| 2026-05-05 14:17 | 25.15678 | -85.46186 | 37030 ft | 420 kts | 21° |
| 2026-05-05 14:18 | 25.20757 | -85.42983 | 37032 ft | 419 kts | 21° |
| 2026-05-05 14:18 | 25.25810 | -85.39790 | 37033 ft | 418 kts | 21° |
| 2026-05-05 14:19 | 25.30879 | -85.36629 | 37033 ft | 418 kts | 19° |
| 2026-05-05 14:19 | 25.36191 | -85.34352 | 37035 ft | 401 kts | 5° |
| 2026-05-05 14:20 | 25.41670 | -85.33533 | 37034 ft | 395 kts | 359° |
| 2026-05-05 14:20 | 25.47173 | -85.33051 | 37029 ft | 395 kts | 358° |
| 2026-05-05 14:21 | 25.52638 | -85.32557 | 37030 ft | 396 kts | 358° |
| 2026-05-05 14:21 | 25.58129 | -85.32024 | 37030 ft | 395 kts | 358° |
| 2026-05-05 14:22 | 25.63604 | -85.31469 | 37030 ft | 395 kts | 359° |
| 2026-05-05 14:22 | 25.69087 | -85.30909 | 37030 ft | 396 kts | 358° |
| 2026-05-05 14:23 | 25.74566 | -85.30346 | 37030 ft | 394 kts | 359° |
| 2026-05-05 14:23 | 25.80044 | -85.29783 | 37028 ft | 395 kts | 358° |
| 2026-05-05 14:24 | 25.85531 | -85.29218 | 37029 ft | 395 kts | 359° |
| 2026-05-05 14:24 | 25.91020 | -85.28654 | 37027 ft | 395 kts | 359° |
| 2026-05-05 14:25 | 25.96496 | -85.28086 | 37031 ft | 396 kts | 358° |
| 2026-05-05 14:25 | 26.01942 | -85.27520 | 37030 ft | 395 kts | 358° |
| 2026-05-05 14:26 | 26.07427 | -85.26953 | 37029 ft | 394 kts | 358° |
| 2026-05-05 14:26 | 26.12896 | -85.26388 | 37029 ft | 396 kts | 358° |
| 2026-05-05 14:27 | 26.18395 | -85.25816 | 37029 ft | 394 kts | 358° |
| 2026-05-05 14:27 | 26.23847 | -85.25250 | 37029 ft | 394 kts | 358° |
| 2026-05-05 14:28 | 26.29268 | -85.24686 | 37029 ft | 392 kts | 358° |
| 2026-05-05 14:28 | 26.34708 | -85.24106 | 37029 ft | 396 kts | 359° |
| 2026-05-05 14:29 | 26.40126 | -85.22966 | 37029 ft | 402 kts | 7° |
| 2026-05-05 14:29 | 26.45476 | -85.20979 | 37029 ft | 409 kts | 11° |
| 2026-05-05 14:30 | 26.50790 | -85.18781 | 37029 ft | 408 kts | 11° |
| 2026-05-05 14:30 | 26.56104 | -85.16577 | 37029 ft | 408 kts | 11° |
| 2026-05-05 14:31 | 26.61401 | -85.14408 | 37029 ft | 410 kts | 11° |
| 2026-05-05 14:31 | 26.66731 | -85.12231 | 37029 ft | 408 kts | 11° |
| 2026-05-05 14:32 | 26.72061 | -85.10054 | 37028 ft | 407 kts | 11° |
| 2026-05-05 14:32 | 26.77356 | -85.07893 | 37029 ft | 406 kts | 11° |
| 2026-05-05 14:33 | 26.82644 | -85.05737 | 37028 ft | 406 kts | 11° |
| 2026-05-05 14:33 | 26.87881 | -85.03598 | 37029 ft | 406 kts | 11° |
| 2026-05-05 14:34 | 26.93187 | -85.01430 | 37029 ft | 407 kts | 10° |
| 2026-05-05 14:34 | 26.98481 | -84.99265 | 37028 ft | 407 kts | 11° |
| 2026-05-05 14:35 | 27.03764 | -84.97098 | 37030 ft | 406 kts | 11° |
| 2026-05-05 14:35 | 27.09102 | -84.94911 | 37029 ft | 407 kts | 11° |
| 2026-05-05 14:36 | 27.14393 | -84.92741 | 37029 ft | 407 kts | 10° |
| 2026-05-05 14:36 | 27.19687 | -84.90566 | 37030 ft | 406 kts | 10° |
| 2026-05-05 14:37 | 27.24969 | -84.88394 | 37029 ft | 407 kts | 10° |
| 2026-05-05 14:37 | 27.30285 | -84.86207 | 37029 ft | 405 kts | 10° |
| 2026-05-05 14:38 | 27.35565 | -84.84032 | 37031 ft | 408 kts | 11° |
| 2026-05-05 14:38 | 27.40829 | -84.81859 | 37031 ft | 405 kts | 11° |
| 2026-05-05 14:39 | 27.46020 | -84.79715 | 37029 ft | 405 kts | 10° |
| 2026-05-05 14:39 | 27.51249 | -84.77541 | 37031 ft | 406 kts | 11° |
| 2026-05-05 14:40 | 27.56448 | -84.75253 | 37030 ft | 406 kts | 11° |
| 2026-05-05 14:40 | 27.61710 | -84.72897 | 37029 ft | 407 kts | 12° |
| 2026-05-05 14:41 | 27.66897 | -84.70576 | 37029 ft | 404 kts | 12° |
| 2026-05-05 14:41 | 27.72038 | -84.68284 | 37029 ft | 407 kts | 11° |
| 2026-05-05 14:42 | 27.77251 | -84.65964 | 37028 ft | 404 kts | 11° |
| 2026-05-05 14:42 | 27.82420 | -84.63663 | 37031 ft | 406 kts | 11° |
| 2026-05-05 14:43 | 27.87663 | -84.61326 | 37029 ft | 405 kts | 11° |
| 2026-05-05 14:43 | 27.92821 | -84.59024 | 37031 ft | 405 kts | 11° |
| 2026-05-05 14:44 | 27.98064 | -84.56684 | 37032 ft | 405 kts | 11° |
| 2026-05-05 14:44 | 28.03289 | -84.54346 | 37028 ft | 403 kts | 11° |
| 2026-05-05 14:45 | 28.08515 | -84.52010 | 37031 ft | 404 kts | 11° |
| 2026-05-05 14:45 | 28.13662 | -84.49706 | 37032 ft | 403 kts | 11° |
| 2026-05-05 14:46 | 28.18858 | -84.47378 | 37031 ft | 404 kts | 11° |
| 2026-05-05 14:46 | 28.24065 | -84.45039 | 37033 ft | 402 kts | 11° |
| 2026-05-05 14:47 | 28.29249 | -84.42708 | 37036 ft | 402 kts | 11° |
| 2026-05-05 14:47 | 28.34423 | -84.40382 | 37037 ft | 403 kts | 11° |
| 2026-05-05 14:48 | 28.39627 | -84.38038 | 37037 ft | 401 kts | 11° |
| 2026-05-05 14:48 | 28.44781 | -84.35714 | 37039 ft | 401 kts | 11° |
| 2026-05-05 14:49 | 28.49911 | -84.33398 | 37037 ft | 401 kts | 11° |
| 2026-05-05 14:49 | 28.55056 | -84.31077 | 37039 ft | 402 kts | 11° |
| 2026-05-05 14:50 | 28.60196 | -84.28751 | 37042 ft | 403 kts | 11° |
| 2026-05-05 14:50 | 28.65362 | -84.26411 | 37043 ft | 401 kts | 11° |
| 2026-05-05 14:51 | 28.70558 | -84.24061 | 37049 ft | 403 kts | 11° |
| 2026-05-05 14:51 | 28.75723 | -84.21719 | 37060 ft | 401 kts | 11° |
| 2026-05-05 14:52 | 28.80802 | -84.19408 | 37065 ft | 400 kts | 11° |
| 2026-05-05 14:52 | 28.85970 | -84.17064 | 37067 ft | 403 kts | 11° |
| 2026-05-05 14:53 | 28.91121 | -84.14719 | 37068 ft | 402 kts | 11° |
| 2026-05-05 14:53 | 28.96264 | -84.12373 | 37068 ft | 400 kts | 11° |
| 2026-05-05 14:54 | 29.01386 | -84.10038 | 37071 ft | 401 kts | 10° |
| 2026-05-05 14:54 | 29.06554 | -84.07686 | 37069 ft | 402 kts | 11° |
| 2026-05-05 14:55 | 29.11701 | -84.05328 | 37071 ft | 401 kts | 11° |
| 2026-05-05 14:55 | 29.16830 | -84.02983 | 37070 ft | 402 kts | 11° |
| 2026-05-05 14:56 | 29.21982 | -84.00625 | 37070 ft | 400 kts | 10° |
| 2026-05-05 14:56 | 29.27112 | -83.98273 | 37071 ft | 400 kts | 10° |
| 2026-05-05 14:57 | 29.32235 | -83.95921 | 37070 ft | 401 kts | 10° |
| 2026-05-05 14:57 | 29.37365 | -83.93564 | 37071 ft | 402 kts | 10° |
| 2026-05-05 14:58 | 29.42512 | -83.91195 | 37071 ft | 400 kts | 10° |
| 2026-05-05 14:58 | 29.47662 | -83.88829 | 37071 ft | 403 kts | 10° |
| 2026-05-05 14:59 | 29.52750 | -83.86475 | 37071 ft | 398 kts | 10° |
| 2026-05-05 14:59 | 29.57750 | -83.84171 | 37070 ft | 400 kts | 11° |
| 2026-05-05 15:00 | 29.62003 | -83.82204 | 37071 ft | 398 kts | 10° |
| 2026-05-05 15:00 | 29.67943 | -83.79465 | 37070 ft | 402 kts | 11° |
| 2026-05-05 15:01 | 29.73068 | -83.77085 | 37070 ft | 398 kts | 10° |
| 2026-05-05 15:01 | 29.78186 | -83.74714 | 37070 ft | 400 kts | 10° |
| 2026-05-05 15:02 | 29.83307 | -83.72339 | 37070 ft | 400 kts | 10° |
| 2026-05-05 15:02 | 29.88427 | -83.69958 | 37072 ft | 401 kts | 10° |
| 2026-05-05 15:03 | 29.93567 | -83.67573 | 37075 ft | 401 kts | 9° |
| 2026-05-05 15:03 | 29.98728 | -83.65173 | 37079 ft | 401 kts | 9° |
| 2026-05-05 15:04 | 30.03815 | -83.62799 | 37078 ft | 400 kts | 10° |
| 2026-05-05 15:04 | 30.08921 | -83.60412 | 37082 ft | 398 kts | 9° |
| 2026-05-05 15:05 | 30.16590 | -83.56828 | 37079 ft | 398 kts | 9° |
| 2026-05-05 15:06 | 30.21375 | -83.54591 | 37079 ft | 399 kts | 9° |
| 2026-05-05 15:06 | 30.26557 | -83.52165 | 37076 ft | 398 kts | 9° |
| 2026-05-05 15:07 | 30.31611 | -83.49797 | 37075 ft | 400 kts | 9° |
| 2026-05-05 15:07 | 30.36638 | -83.47438 | 37067 ft | 397 kts | 9° |
| 2026-05-05 15:08 | 30.41676 | -83.45066 | 37059 ft | 394 kts | 9° |
| 2026-05-05 15:08 | 30.46687 | -83.42709 | 37058 ft | 397 kts | 9° |
| 2026-05-05 15:09 | 30.51723 | -83.40344 | 37060 ft | 399 kts | 9° |
| 2026-05-05 15:09 | 30.56621 | -83.38029 | 37064 ft | 395 kts | 9° |
| 2026-05-05 15:10 | 30.61666 | -83.35648 | 37071 ft | 396 kts | 9° |
| 2026-05-05 15:10 | 30.66615 | -83.33307 | 37072 ft | 395 kts | 9° |
| 2026-05-05 15:11 | 30.71586 | -83.30959 | 37070 ft | 396 kts | 9° |
| 2026-05-05 15:11 | 30.76563 | -83.28602 | 37070 ft | 397 kts | 9° |
| 2026-05-05 15:12 | 30.81576 | -83.26231 | 37073 ft | 400 kts | 9° |
| 2026-05-05 15:12 | 30.86635 | -83.23820 | 37070 ft | 394 kts | 9° |
| 2026-05-05 15:13 | 30.91636 | -83.21440 | 37074 ft | 394 kts | 8° |
| 2026-05-05 15:13 | 30.96582 | -83.18735 | 37071 ft | 409 kts | 16° |
| 2026-05-05 15:14 | 31.01278 | -83.15151 | 37069 ft | 414 kts | 21° |
| 2026-05-05 15:14 | 31.06001 | -83.11208 | 37067 ft | 419 kts | 21° |
| 2026-05-05 15:15 | 31.10737 | -83.07230 | 37063 ft | 415 kts | 21° |
| 2026-05-05 15:15 | 31.15454 | -83.03288 | 37059 ft | 418 kts | 21° |
| 2026-05-05 15:16 | 31.20174 | -82.99355 | 37056 ft | 418 kts | 21° |
| 2026-05-05 15:16 | 31.24879 | -82.95437 | 37060 ft | 416 kts | 21° |
| 2026-05-05 15:17 | 31.29608 | -82.91492 | 37065 ft | 417 kts | 21° |
| 2026-05-05 15:17 | 31.34344 | -82.87537 | 37075 ft | 417 kts | 21° |
| 2026-05-05 15:18 | 31.39048 | -82.83607 | 37076 ft | 416 kts | 21° |
| 2026-05-05 15:18 | 31.43671 | -82.79745 | 37079 ft | 419 kts | 21° |
| 2026-05-05 15:19 | 31.48354 | -82.75813 | 37081 ft | 413 kts | 20° |
| 2026-05-05 15:19 | 31.52951 | -82.71963 | 37080 ft | 416 kts | 21° |
| 2026-05-05 15:20 | 31.57554 | -82.68100 | 37079 ft | 414 kts | 21° |
| 2026-05-05 15:20 | 31.62120 | -82.64268 | 37073 ft | 417 kts | 21° |
| 2026-05-05 15:21 | 31.66770 | -82.60352 | 37073 ft | 414 kts | 20° |
| 2026-05-05 15:21 | 31.71350 | -82.56496 | 37073 ft | 412 kts | 21° |
| 2026-05-05 15:22 | 31.75973 | -82.52588 | 37071 ft | 413 kts | 20° |
| 2026-05-05 15:22 | 31.80541 | -82.48731 | 37072 ft | 413 kts | 20° |
| 2026-05-05 15:23 | 31.85080 | -82.44893 | 37071 ft | 413 kts | 20° |
| 2026-05-05 15:23 | 31.89677 | -82.41006 | 37073 ft | 414 kts | 21° |
| 2026-05-05 15:24 | 31.94231 | -82.37138 | 37074 ft | 413 kts | 21° |
| 2026-05-05 15:24 | 31.98746 | -82.33295 | 37077 ft | 412 kts | 21° |
| 2026-05-05 15:25 | 32.03341 | -82.29393 | 37080 ft | 414 kts | 21° |
| 2026-05-05 15:25 | 32.07947 | -82.25487 | 37086 ft | 417 kts | 21° |
| 2026-05-05 15:26 | 32.12509 | -82.21586 | 37090 ft | 414 kts | 22° |
| 2026-05-05 15:26 | 32.17110 | -82.17660 | 37091 ft | 414 kts | 22° |
| 2026-05-05 15:27 | 32.21713 | -82.13729 | 37089 ft | 412 kts | 22° |
| 2026-05-05 15:27 | 32.26235 | -82.09863 | 37092 ft | 413 kts | 22° |
| 2026-05-05 15:28 | 32.30810 | -82.05937 | 37093 ft | 411 kts | 22° |
| 2026-05-05 15:28 | 32.35418 | -82.01990 | 37091 ft | 413 kts | 22° |
| 2026-05-05 15:29 | 32.39981 | -81.98070 | 37089 ft | 412 kts | 22° |
| 2026-05-05 15:29 | 32.44498 | -81.94186 | 37089 ft | 409 kts | 22° |
| 2026-05-05 15:30 | 32.49103 | -81.90228 | 37095 ft | 415 kts | 22° |
| 2026-05-05 15:30 | 32.53691 | -81.86271 | 37087 ft | 411 kts | 22° |
| 2026-05-05 15:31 | 32.58205 | -81.82378 | 37089 ft | 414 kts | 23° |
| 2026-05-05 15:31 | 32.62793 | -81.78410 | 37093 ft | 412 kts | 23° |
| 2026-05-05 15:32 | 32.67384 | -81.74437 | 37100 ft | 411 kts | 23° |
| 2026-05-05 15:32 | 32.71973 | -81.70468 | 37098 ft | 413 kts | 23° |
| 2026-05-05 15:33 | 32.76556 | -81.66482 | 37094 ft | 409 kts | 23° |
| 2026-05-05 15:33 | 32.81119 | -81.62523 | 37088 ft | 414 kts | 23° |
| 2026-05-05 15:34 | 32.85714 | -81.58526 | 37089 ft | 411 kts | 23° |
| 2026-05-05 15:34 | 32.90248 | -81.54569 | 37085 ft | 409 kts | 23° |
| 2026-05-05 15:35 | 32.94821 | -81.50593 | 37084 ft | 415 kts | 23° |
| 2026-05-05 15:35 | 32.99427 | -81.46574 | 37088 ft | 413 kts | 23° |
| 2026-05-05 15:36 | 33.03989 | -81.42573 | 37091 ft | 407 kts | 23° |
| 2026-05-05 15:36 | 33.08550 | -81.38582 | 37096 ft | 410 kts | 24° |
| 2026-05-05 15:37 | 33.13077 | -81.34616 | 37098 ft | 411 kts | 24° |
| 2026-05-05 15:37 | 33.17662 | -81.30599 | 37101 ft | 412 kts | 24° |
| 2026-05-05 15:38 | 33.22205 | -81.26601 | 37087 ft | 407 kts | 24° |
| 2026-05-05 15:38 | 33.26743 | -81.22604 | 37091 ft | 410 kts | 24° |
| 2026-05-05 15:39 | 33.31283 | -81.18605 | 37086 ft | 410 kts | 25° |
| 2026-05-05 15:39 | 33.35821 | -81.14600 | 37081 ft | 413 kts | 24° |
| 2026-05-05 15:40 | 33.40396 | -81.10554 | 37079 ft | 410 kts | 25° |
| 2026-05-05 15:40 | 33.44912 | -81.06556 | 37089 ft | 408 kts | 25° |
| 2026-05-05 15:41 | 33.49409 | -81.02577 | 37089 ft | 411 kts | 25° |
| 2026-05-05 15:41 | 33.53921 | -80.98572 | 37098 ft | 408 kts | 25° |
| 2026-05-05 15:42 | 33.58434 | -80.94567 | 37093 ft | 412 kts | 25° |
| 2026-05-05 15:42 | 33.62980 | -80.91077 | 37090 ft | 386 kts | 8° |
| 2026-05-05 15:42 | 33.65495 | -80.90631 | 37105 ft | 363 kts | 350° |
| 2026-05-05 15:43 | 33.67993 | -80.90981 | 37098 ft | 359 kts | 344° |
| 2026-05-05 15:43 | 33.72868 | -80.92027 | 37093 ft | 363 kts | 345° |
| 2026-05-05 15:44 | 33.77781 | -80.92659 | 37096 ft | 363 kts | 348° |
| 2026-05-05 15:44 | 33.82746 | -80.93009 | 37095 ft | 364 kts | 349° |
| 2026-05-05 15:45 | 33.87745 | -80.93275 | 37096 ft | 363 kts | 350° |
| 2026-05-05 15:45 | 33.92740 | -80.93527 | 37095 ft | 364 kts | 349° |
| 2026-05-05 15:46 | 33.97757 | -80.93787 | 37101 ft | 367 kts | 350° |
| 2026-05-05 15:46 | 34.02789 | -80.94041 | 37099 ft | 365 kts | 350° |
| 2026-05-05 15:47 | 34.07804 | -80.94299 | 37093 ft | 367 kts | 350° |
| 2026-05-05 15:47 | 34.12733 | -80.94553 | 37093 ft | 364 kts | 351° |
| 2026-05-05 15:48 | 34.17685 | -80.94810 | 37087 ft | 368 kts | 351° |
| 2026-05-05 15:48 | 34.22825 | -80.95077 | 37088 ft | 366 kts | 350° |
| 2026-05-05 15:49 | 34.27805 | -80.95334 | 37087 ft | 364 kts | 350° |
| 2026-05-05 15:49 | 34.32900 | -80.95600 | 37085 ft | 367 kts | 350° |
| 2026-05-05 15:50 | 34.38005 | -80.95860 | 37087 ft | 365 kts | 350° |
| 2026-05-05 15:50 | 34.43089 | -80.96127 | 37081 ft | 367 kts | 350° |
| 2026-05-05 15:51 | 34.48220 | -80.96393 | 37079 ft | 367 kts | 351° |
| 2026-05-05 15:51 | 34.53321 | -80.96658 | 37078 ft | 365 kts | 349° |
| 2026-05-05 15:52 | 34.58419 | -80.96931 | 37082 ft | 368 kts | 351° |
| 2026-05-05 15:52 | 34.63506 | -80.97193 | 37092 ft | 366 kts | 350° |
| 2026-05-05 15:53 | 34.68607 | -80.97463 | 37089 ft | 368 kts | 350° |
| 2026-05-05 15:53 | 34.73726 | -80.97733 | 37091 ft | 367 kts | 350° |
| 2026-05-05 15:54 | 34.78818 | -80.98000 | 37090 ft | 366 kts | 350° |
| 2026-05-05 15:54 | 34.83885 | -80.98264 | 37085 ft | 367 kts | 349° |
| 2026-05-05 15:55 | 34.89041 | -80.98541 | 37079 ft | 370 kts | 351° |
| 2026-05-05 15:55 | 34.94157 | -80.98809 | 37076 ft | 367 kts | 350° |
| 2026-05-05 15:56 | 34.99257 | -80.99073 | 37079 ft | 366 kts | 351° |
| 2026-05-05 15:56 | 35.04356 | -80.99346 | 37069 ft | 365 kts | 351° |
| 2026-05-05 15:57 | 35.09444 | -80.99616 | 37076 ft | 369 kts | 350° |
| 2026-05-05 15:57 | 35.14545 | -80.99884 | 37084 ft | 368 kts | 350° |
| 2026-05-05 15:58 | 35.19645 | -81.00156 | 37081 ft | 365 kts | 350° |
| 2026-05-05 15:58 | 35.24757 | -81.00428 | 37085 ft | 368 kts | 350° |
| 2026-05-05 15:59 | 35.29850 | -81.00700 | 37082 ft | 365 kts | 350° |
| 2026-05-05 15:59 | 35.34941 | -81.00969 | 37085 ft | 366 kts | 350° |
| 2026-05-05 16:00 | 35.40050 | -81.01239 | 37084 ft | 367 kts | 350° |
| 2026-05-05 16:00 | 35.45141 | -81.01511 | 37090 ft | 365 kts | 350° |
| 2026-05-05 16:01 | 35.50210 | -81.01784 | 37082 ft | 368 kts | 349° |
| 2026-05-05 16:01 | 35.55348 | -81.02057 | 37080 ft | 366 kts | 350° |
| 2026-05-05 16:02 | 35.60400 | -81.02327 | 37082 ft | 366 kts | 350° |
| 2026-05-05 16:02 | 35.65521 | -81.02602 | 37080 ft | 367 kts | 349° |
| 2026-05-05 16:03 | 35.70641 | -81.02876 | 37071 ft | 368 kts | 350° |
| 2026-05-05 16:03 | 35.75712 | -81.03146 | 37085 ft | 364 kts | 350° |
| 2026-05-05 16:04 | 35.80801 | -81.03421 | 37076 ft | 368 kts | 349° |
| 2026-05-05 16:04 | 35.85921 | -81.03699 | 37078 ft | 366 kts | 349° |
| 2026-05-05 16:05 | 35.90999 | -81.03971 | 37074 ft | 367 kts | 350° |
| 2026-05-05 16:05 | 35.96144 | -81.04252 | 37076 ft | 368 kts | 349° |
| 2026-05-05 16:06 | 36.01225 | -81.04526 | 37071 ft | 367 kts | 349° |
| 2026-05-05 16:06 | 36.06324 | -81.04801 | 37071 ft | 367 kts | 350° |
| 2026-05-05 16:07 | 36.11468 | -81.04702 | 37069 ft | 376 kts | 357° |
| 2026-05-05 16:07 | 36.16726 | -81.03577 | 37068 ft | 384 kts | 2° |
| 2026-05-05 16:08 | 36.21918 | -81.02172 | 37066 ft | 383 kts | 2° |
| 2026-05-05 16:08 | 36.27162 | -81.00768 | 37058 ft | 384 kts | 2° |
| 2026-05-05 16:09 | 36.32395 | -80.99394 | 37065 ft | 386 kts | 2° |
| 2026-05-05 16:09 | 36.37635 | -80.98031 | 37060 ft | 388 kts | 2° |
| 2026-05-05 16:10 | 36.42926 | -80.96653 | 37054 ft | 384 kts | 2° |
| 2026-05-05 16:10 | 36.48173 | -80.95293 | 37051 ft | 389 kts | 1° |
| 2026-05-05 16:11 | 36.53481 | -80.93907 | 37052 ft | 387 kts | 2° |
| 2026-05-05 16:12 | 36.64082 | -80.91139 | 37061 ft | 387 kts | 2° |
| 2026-05-05 16:13 | 36.77311 | -80.87678 | 37081 ft | 389 kts | 2° |
| 2026-05-05 16:13 | 36.82639 | -80.86288 | 37063 ft | 395 kts | 2° |
| 2026-05-05 16:14 | 36.93330 | -80.83475 | 37056 ft | 392 kts | 2° |
| 2026-05-05 16:15 | 37.04015 | -80.80661 | 37050 ft | 393 kts | 1° |
| 2026-05-05 16:16 | 37.14761 | -80.77823 | 37054 ft | 398 kts | 1° |
| 2026-05-05 16:17 | 37.22836 | -80.75678 | 37048 ft | 397 kts | 2° |
| 2026-05-05 16:18 | 37.30926 | -80.73530 | 37044 ft | 397 kts | 2° |
| 2026-05-05 16:19 | 37.39054 | -80.71371 | 37031 ft | 395 kts | 1° |
| 2026-05-05 16:19 | 37.47144 | -80.69207 | 37030 ft | 398 kts | 2° |
| 2026-05-05 16:20 | 37.57967 | -80.66312 | 37035 ft | 396 kts | 1° |
| 2026-05-05 16:22 | 37.71528 | -80.62676 | 37044 ft | 403 kts | 2° |
| 2026-05-05 16:23 | 37.82434 | -80.59739 | 37058 ft | 401 kts | 2° |
| 2026-05-05 16:23 | 37.90676 | -80.57519 | 37051 ft | 403 kts | 2° |
| 2026-05-05 16:24 | 37.96183 | -80.56025 | 37045 ft | 406 kts | 2° |
| 2026-05-05 16:25 | 38.04449 | -80.53781 | 37034 ft | 405 kts | 2° |
| 2026-05-05 16:25 | 38.12718 | -80.51540 | 37125 ft | 405 kts | 2° |
| 2026-05-05 16:26 | 38.23790 | -80.48525 | 37012 ft | 409 kts | 2° |
| 2026-05-05 16:27 | 38.29364 | -80.47006 | 37030 ft | 408 kts | 2° |
| 2026-05-05 16:27 | 38.34880 | -80.45489 | 37014 ft | 408 kts | 2° |
| 2026-05-05 16:28 | 38.40441 | -80.43968 | 37006 ft | 411 kts | 2° |
| 2026-05-05 16:28 | 38.46036 | -80.42434 | 36994 ft | 408 kts | 2° |
| 2026-05-05 16:29 | 38.51587 | -80.40908 | 36989 ft | 410 kts | 2° |
| 2026-05-05 16:29 | 38.57144 | -80.39374 | 36981 ft | 410 kts | 2° |
| 2026-05-05 16:30 | 38.62745 | -80.37833 | 36986 ft | 414 kts | 3° |
| 2026-05-05 16:30 | 38.68359 | -80.36285 | 36970 ft | 410 kts | 2° |
| 2026-05-05 16:31 | 38.73917 | -80.34747 | 36969 ft | 416 kts | 4° |
| 2026-05-05 16:31 | 38.79597 | -80.33176 | 36971 ft | 412 kts | 3° |
| 2026-05-05 16:32 | 38.85180 | -80.31624 | 36966 ft | 413 kts | 4° |
| 2026-05-05 16:32 | 38.90830 | -80.30061 | 36973 ft | 418 kts | 4° |
| 2026-05-05 16:33 | 38.96491 | -80.28485 | 36967 ft | 412 kts | 4° |
| 2026-05-05 16:33 | 39.02102 | -80.26923 | 36950 ft | 415 kts | 4° |
| 2026-05-05 16:34 | 39.07707 | -80.25356 | 36949 ft | 414 kts | 4° |
| 2026-05-05 16:34 | 39.13361 | -80.23780 | 36955 ft | 419 kts | 3° |
| 2026-05-05 16:35 | 39.19054 | -80.22187 | 36939 ft | 417 kts | 4° |
| 2026-05-05 16:35 | 39.24694 | -80.20602 | 36943 ft | 418 kts | 3° |
| 2026-05-05 16:36 | 39.30356 | -80.19010 | 36952 ft | 417 kts | 3° |
| 2026-05-05 16:36 | 39.36037 | -80.17409 | 36943 ft | 416 kts | 3° |
| 2026-05-05 16:37 | 39.41707 | -80.15807 | 36942 ft | 418 kts | 3° |
| 2026-05-05 16:37 | 39.47357 | -80.14212 | 36933 ft | 414 kts | 3° |
| 2026-05-05 16:38 | 39.52972 | -80.12627 | 36947 ft | 419 kts | 3° |
| 2026-05-05 16:38 | 39.58689 | -80.11007 | 36930 ft | 417 kts | 3° |
| 2026-05-05 16:39 | 39.64353 | -80.09395 | 36936 ft | 417 kts | 3° |
| 2026-05-05 16:39 | 39.70016 | -80.07786 | 36919 ft | 418 kts | 4° |
| 2026-05-05 16:40 | 39.75699 | -80.06173 | 36909 ft | 420 kts | 3° |
| 2026-05-05 16:40 | 39.81352 | -80.04562 | 36909 ft | 418 kts | 3° |
| 2026-05-05 16:41 | 39.87062 | -80.02927 | 36901 ft | 416 kts | 4° |
| 2026-05-05 16:41 | 39.92735 | -80.01300 | 36887 ft | 421 kts | 3° |
| 2026-05-05 16:42 | 39.98465 | -79.99662 | 36885 ft | 423 kts | 3° |
| 2026-05-05 16:42 | 40.04137 | -79.98026 | 36873 ft | 419 kts | 4° |
| 2026-05-05 16:43 | 40.09864 | -79.96379 | 36867 ft | 420 kts | 3° |
| 2026-05-05 16:43 | 40.15580 | -79.94733 | 36866 ft | 420 kts | 3° |
| 2026-05-05 16:44 | 40.21287 | -79.93094 | 36872 ft | 420 kts | 3° |
| 2026-05-05 16:44 | 40.26971 | -79.91451 | 36869 ft | 421 kts | 3° |
| 2026-05-05 16:45 | 40.32692 | -79.89793 | 36868 ft | 422 kts | 3° |
| 2026-05-05 16:45 | 40.38440 | -79.88123 | 36869 ft | 426 kts | 4° |
| 2026-05-05 16:46 | 40.44185 | -79.86451 | 36864 ft | 420 kts | 3° |
| 2026-05-05 16:46 | 40.49883 | -79.84791 | 36865 ft | 424 kts | 3° |
| 2026-05-05 16:47 | 40.55624 | -79.83123 | 36866 ft | 424 kts | 3° |
| 2026-05-05 16:47 | 40.61290 | -79.81465 | 36861 ft | 425 kts | 4° |
| 2026-05-05 16:48 | 40.66891 | -79.79821 | 36859 ft | 426 kts | 3° |
| 2026-05-05 16:48 | 40.72687 | -79.78120 | 36856 ft | 425 kts | 3° |
| 2026-05-05 16:49 | 40.78472 | -79.76427 | 36857 ft | 430 kts | 4° |
| 2026-05-05 16:49 | 40.84302 | -79.74714 | 36853 ft | 427 kts | 4° |
| 2026-05-05 16:50 | 40.90054 | -79.73009 | 36855 ft | 429 kts | 4° |
| 2026-05-05 16:50 | 40.95879 | -79.71291 | 36858 ft | 428 kts | 4° |
| 2026-05-05 16:51 | 41.01722 | -79.69564 | 36857 ft | 432 kts | 3° |
| 2026-05-05 16:51 | 41.07516 | -79.67843 | 36860 ft | 432 kts | 3° |
| 2026-05-05 16:52 | 41.13392 | -79.66097 | 36846 ft | 433 kts | 4° |
| 2026-05-05 16:52 | 41.19197 | -79.64363 | 36835 ft | 430 kts | 3° |
| 2026-05-05 16:53 | 41.25052 | -79.62620 | 36843 ft | 432 kts | 3° |
| 2026-05-05 16:53 | 41.30944 | -79.60873 | 36836 ft | 436 kts | 4° |
| 2026-05-05 16:54 | 41.36797 | -79.59120 | 36841 ft | 432 kts | 3° |
| 2026-05-05 16:54 | 41.42686 | -79.57359 | 36837 ft | 433 kts | 3° |
| 2026-05-05 16:55 | 41.48554 | -79.55595 | 36836 ft | 438 kts | 3° |
| 2026-05-05 16:55 | 41.54453 | -79.53819 | 36829 ft | 431 kts | 3° |
| 2026-05-05 16:56 | 41.60338 | -79.52045 | 36826 ft | 435 kts | 3° |
| 2026-05-05 16:56 | 41.66226 | -79.50274 | 36818 ft | 438 kts | 3° |
| 2026-05-05 16:57 | 41.72164 | -79.48482 | 36813 ft | 435 kts | 3° |
| 2026-05-05 16:57 | 41.75093 | -79.47588 | 36560 ft | 430 kts | 3° |
| 2026-05-05 16:57 | 41.77970 | -79.46707 | 36115 ft | 428 kts | 3° |
| 2026-05-05 16:58 | 41.80895 | -79.45817 | 35524 ft | 430 kts | 2° |
| 2026-05-05 16:58 | 41.83776 | -79.44943 | 34859 ft | 434 kts | 2° |
| 2026-05-05 16:58 | 41.86760 | -79.44044 | 34120 ft | 437 kts | 2° |
| 2026-05-05 16:58 | 41.89704 | -79.43150 | 33607 ft | 434 kts | 2° |
| 2026-05-05 16:59 | 41.92607 | -79.42262 | 33067 ft | 431 kts | 3° |
| 2026-05-05 16:59 | 41.95528 | -79.41367 | 32517 ft | 428 kts | 3° |
| 2026-05-05 16:59 | 41.98426 | -79.40478 | 31974 ft | 425 kts | 3° |
| 2026-05-05 16:59 | 42.01297 | -79.39598 | 31434 ft | 422 kts | 3° |
| 2026-05-05 17:00 | 42.04131 | -79.38729 | 30899 ft | 420 kts | 3° |
| 2026-05-05 17:00 | 42.06946 | -79.37866 | 30362 ft | 417 kts | 4° |
| 2026-05-05 17:00 | 42.09757 | -79.37049 | 29835 ft | 413 kts | 1° |
| 2026-05-05 17:00 | 42.12503 | -79.36488 | 29298 ft | 406 kts | 357° |
| 2026-05-05 17:01 | 42.15217 | -79.36146 | 28789 ft | 400 kts | 355° |
| 2026-05-05 17:01 | 42.17973 | -79.35908 | 28275 ft | 397 kts | 354° |
| 2026-05-05 17:01 | 42.20734 | -79.35711 | 27755 ft | 394 kts | 353° |
| 2026-05-05 17:01 | 42.23440 | -79.35525 | 27238 ft | 391 kts | 354° |
| 2026-05-05 17:02 | 42.26089 | -79.35340 | 26732 ft | 389 kts | 354° |
| 2026-05-05 17:02 | 42.28804 | -79.35143 | 26231 ft | 387 kts | 354° |
| 2026-05-05 17:02 | 42.31475 | -79.34944 | 25715 ft | 385 kts | 355° |
| 2026-05-05 17:02 | 42.34099 | -79.34744 | 25211 ft | 383 kts | 355° |
| 2026-05-05 17:03 | 42.36751 | -79.34535 | 24702 ft | 380 kts | 355° |
| 2026-05-05 17:03 | 42.39389 | -79.34326 | 24196 ft | 378 kts | 355° |
| 2026-05-05 17:03 | 42.42014 | -79.34116 | 23701 ft | 375 kts | 356° |
| 2026-05-05 17:03 | 42.44556 | -79.33912 | 23213 ft | 373 kts | 356° |
| 2026-05-05 17:04 | 42.47079 | -79.33710 | 22739 ft | 372 kts | 356° |
| 2026-05-05 17:04 | 42.49576 | -79.33508 | 22256 ft | 370 kts | 356° |
| 2026-05-05 17:04 | 42.52135 | -79.33303 | 21759 ft | 369 kts | 356° |
| 2026-05-05 17:04 | 42.54626 | -79.33102 | 21278 ft | 367 kts | 356° |
| 2026-05-05 17:05 | 42.57124 | -79.32899 | 20808 ft | 365 kts | 356° |
| 2026-05-05 17:05 | 42.59591 | -79.32698 | 20321 ft | 364 kts | 356° |
| 2026-05-05 17:05 | 42.62071 | -79.32497 | 19846 ft | 362 kts | 356° |
| 2026-05-05 17:05 | 42.64299 | -79.32317 | 19418 ft | 361 kts | 356° |
| 2026-05-05 17:06 | 42.66962 | -79.32103 | 18913 ft | 359 kts | 356° |
| 2026-05-05 17:06 | 42.69415 | -79.31905 | 18440 ft | 358 kts | 357° |
| 2026-05-05 17:06 | 42.71865 | -79.31706 | 17945 ft | 357 kts | 357° |
| 2026-05-05 17:06 | 42.74324 | -79.31503 | 17492 ft | 356 kts | 357° |
| 2026-05-05 17:07 | 42.76733 | -79.31305 | 17183 ft | 350 kts | 357° |
| 2026-05-05 17:07 | 42.79129 | -79.31108 | 16789 ft | 346 kts | 357° |
| 2026-05-05 17:07 | 42.81515 | -79.30917 | 16337 ft | 345 kts | 356° |
| 2026-05-05 17:07 | 42.83881 | -79.30793 | 16024 ft | 338 kts | 352° |
| 2026-05-05 17:08 | 42.86224 | -79.30913 | 16007 ft | 338 kts | 348° |
| 2026-05-05 17:08 | 42.88577 | -79.31173 | 16004 ft | 340 kts | 347° |
| 2026-05-05 17:08 | 42.90896 | -79.31460 | 16010 ft | 341 kts | 347° |
| 2026-05-05 17:08 | 42.93257 | -79.31741 | 16004 ft | 341 kts | 348° |
| 2026-05-05 17:09 | 42.95609 | -79.32000 | 15977 ft | 339 kts | 348° |
| 2026-05-05 17:09 | 42.97955 | -79.32243 | 15980 ft | 340 kts | 348° |
| 2026-05-05 17:09 | 43.00043 | -79.32455 | 15965 ft | 342 kts | 348° |
| 2026-05-05 17:09 | 43.02542 | -79.32704 | 15988 ft | 342 kts | 348° |
| 2026-05-05 17:10 | 43.04944 | -79.32945 | 15994 ft | 343 kts | 348° |
| 2026-05-05 17:10 | 43.07338 | -79.33183 | 15995 ft | 343 kts | 348° |
| 2026-05-05 17:10 | 43.09735 | -79.33421 | 15986 ft | 342 kts | 348° |
| 2026-05-05 17:10 | 43.12067 | -79.33650 | 15722 ft | 340 kts | 348° |
| 2026-05-05 17:11 | 43.14448 | -79.33885 | 15242 ft | 339 kts | 347° |
| 2026-05-05 17:11 | 43.16804 | -79.34121 | 14780 ft | 338 kts | 347° |
| 2026-05-05 17:11 | 43.19030 | -79.34345 | 14337 ft | 337 kts | 347° |
| 2026-05-05 17:11 | 43.21356 | -79.34579 | 13888 ft | 336 kts | 347° |
| 2026-05-05 17:12 | 43.23638 | -79.34811 | 13438 ft | 335 kts | 347° |
| 2026-05-05 17:12 | 43.25901 | -79.35039 | 13000 ft | 333 kts | 347° |
| 2026-05-05 17:12 | 43.28207 | -79.35273 | 12558 ft | 332 kts | 347° |
| 2026-05-05 17:12 | 43.30446 | -79.35693 | 12109 ft | 323 kts | 338° |
| 2026-05-05 17:13 | 43.32573 | -79.36669 | 11673 ft | 313 kts | 327° |
| 2026-05-05 17:13 | 43.34508 | -79.37922 | 11260 ft | 308 kts | 323° |
| 2026-05-05 17:13 | 43.36385 | -79.39237 | 10998 ft | 300 kts | 323° |
| 2026-05-05 17:13 | 43.38004 | -79.40350 | 10904 ft | 290 kts | 323° |
| 2026-05-05 17:14 | 43.39547 | -79.41383 | 10556 ft | 290 kts | 323° |
| 2026-05-05 17:14 | 43.41481 | -79.42656 | 10218 ft | 285 kts | 324° |
| 2026-05-05 17:14 | 43.43367 | -79.43868 | 9953 ft | 278 kts | 324° |
| 2026-05-05 17:14 | 43.45031 | -79.44939 | 9611 ft | 277 kts | 324° |
| 2026-05-05 17:15 | 43.46800 | -79.46084 | 9256 ft | 275 kts | 324° |
| 2026-05-05 17:15 | 43.48521 | -79.47198 | 8972 ft | 271 kts | 324° |
| 2026-05-05 17:15 | 43.50214 | -79.48293 | 8635 ft | 268 kts | 325° |
| 2026-05-05 17:15 | 43.51879 | -79.49360 | 8507 ft | 258 kts | 324° |
| 2026-05-05 17:16 | 43.53463 | -79.50378 | 8388 ft | 247 kts | 324° |
| 2026-05-05 17:16 | 43.54984 | -79.51354 | 8271 ft | 238 kts | 324° |
| 2026-05-05 17:16 | 43.56457 | -79.52302 | 8089 ft | 232 kts | 323° |
| 2026-05-05 17:16 | 43.57860 | -79.53134 | 7987 ft | 233 kts | 331° |
| 2026-05-05 17:17 | 43.59384 | -79.53437 | 7959 ft | 254 kts | 356° |
| 2026-05-05 17:17 | 43.63420 | -79.49235 | 7190 ft | 274 kts | 46° |
| 2026-05-05 17:18 | 43.64595 | -79.47367 | 6954 ft | 271 kts | 45° |
| 2026-05-05 17:18 | 43.65586 | -79.45847 | 6741 ft | 269 kts | 44° |
| 2026-05-05 17:18 | 43.66992 | -79.43756 | 6514 ft | 264 kts | 44° |
| 2026-05-05 17:18 | 43.68211 | -79.41974 | 6224 ft | 264 kts | 43° |